createdAt,value
2022-09-20T00:01:28.590Z,75694.75
2022-09-20T00:03:01.207Z,75698.72
2022-09-20T00:04:33.900Z,75696.72
2022-09-20T00:06:07.766Z,75700.69
2022-09-20T00:07:40.420Z,75706.63
2022-09-20T00:09:13.067Z,75710.56
2022-09-20T00:10:46.151Z,75722.44
2022-09-20T00:12:18.771Z,75718.47
2022-09-20T00:13:52.842Z,75726.38
2022-09-20T00:15:25.530Z,75732.31
2022-09-20T00:16:58.363Z,75734.28
2022-09-20T00:18:31.203Z,75742.19
2022-09-20T00:20:03.972Z,75742.19
2022-09-20T00:21:38.110Z,75740.22
2022-09-20T00:23:10.904Z,75736.28
2022-09-20T00:24:48.172Z,75746.16
2022-09-20T00:26:22.204Z,75750.13
2022-09-20T00:27:55.104Z,75750.13
2022-09-20T00:29:27.931Z,75758.03
2022-09-20T00:31:01.103Z,75754.06
2022-09-20T00:32:33.769Z,75761.97
2022-09-20T00:34:24.758Z,75765.94
2022-09-20T00:35:59.130Z,75773.84
2022-09-20T00:37:31.844Z,75775.81
2022-09-20T00:39:04.651Z,75783.72
2022-09-20T00:40:37.792Z,75789.66
2022-09-20T00:42:16.486Z,75797.56
2022-09-20T00:43:49.124Z,75793.59
2022-09-20T00:45:21.697Z,75801.50
2022-09-20T00:46:54.295Z,75797.56
2022-09-20T00:48:30.601Z,75809.41
2022-09-20T00:50:07.407Z,75809.41
2022-09-20T00:51:41.664Z,75807.44
2022-09-20T00:53:34.550Z,75813.38
2022-09-20T00:55:08.529Z,75815.34
2022-09-20T00:56:44.277Z,75811.41
2022-09-20T00:58:17.934Z,75803.50
2022-09-20T00:59:51.117Z,75797.56
2022-09-20T01:01:23.861Z,75799.53
2022-09-20T01:02:59.090Z,75789.66
2022-09-20T01:04:31.771Z,75789.66
2022-09-20T01:06:08.514Z,75789.66
2022-09-20T01:07:42.801Z,75787.69
2022-09-20T01:09:15.551Z,75789.66
2022-09-20T01:10:48.748Z,75789.66
2022-09-20T01:12:23.278Z,75785.69
2022-09-20T01:13:55.992Z,75791.63
2022-09-20T01:15:29.811Z,75789.66
2022-09-20T01:17:04.253Z,75793.59
2022-09-20T01:18:37.793Z,75797.56
2022-09-20T01:20:16.347Z,75797.56
2022-09-20T01:21:49.046Z,75809.41
2022-09-20T01:23:24.400Z,75811.41
2022-09-20T01:25:02.827Z,75819.31
2022-09-20T01:26:50.238Z,75827.22
2022-09-20T01:28:23.527Z,75817.31
2022-09-20T01:30:04.421Z,75805.47
2022-09-20T01:31:41.327Z,75797.56
2022-09-20T01:33:33.158Z,75793.59
2022-09-20T01:35:07.490Z,75793.59
2022-09-20T01:36:40.242Z,75799.53
2022-09-20T01:38:12.749Z,75797.56
2022-09-20T01:40:04.662Z,75805.47
2022-09-20T01:41:40.400Z,75807.44
2022-09-20T01:43:18.832Z,75811.41
2022-09-20T01:45:03.851Z,75813.38
2022-09-20T01:46:37.057Z,75823.25
2022-09-20T01:48:10.548Z,75825.25
2022-09-20T01:49:53.794Z,75829.19
2022-09-20T01:51:43.158Z,75829.19
2022-09-20T01:53:31.421Z,75825.25
2022-09-20T01:55:16.216Z,75833.16
2022-09-20T01:56:48.865Z,75831.16
2022-09-20T01:59:19.783Z,75825.25
2022-09-20T02:00:58.796Z,75825.25
2022-09-20T02:02:34.348Z,75825.25
2022-09-20T02:04:07.263Z,75829.19
2022-09-20T02:05:39.879Z,75821.28
2022-09-20T02:07:19.250Z,75827.22
2022-09-20T02:09:03.632Z,75823.25
2022-09-20T02:10:49.039Z,75827.22
2022-09-20T02:12:21.536Z,75829.19
2022-09-20T02:14:03.306Z,75837.09
2022-09-20T02:15:51.373Z,75827.22
2022-09-20T02:17:42.392Z,75821.28
2022-09-20T02:19:22.028Z,75817.31
2022-09-20T02:21:03.999Z,75809.41
2022-09-20T02:22:41.554Z,75801.50
2022-09-20T02:24:20.451Z,75801.50
2022-09-20T02:26:03.300Z,75797.56
2022-09-20T02:27:54.652Z,75791.63
2022-09-20T02:29:30.407Z,75789.66
2022-09-20T02:31:12.788Z,75756.03
2022-09-20T02:32:48.941Z,75667.06
2022-09-20T02:34:37.477Z,75580.09
2022-09-20T02:36:10.169Z,75544.50
2022-09-20T02:37:53.482Z,75493.13
2022-09-20T02:39:36.742Z,75447.66
2022-09-20T02:41:18.635Z,75416.00
2022-09-20T02:42:59.605Z,75240.09
2022-09-20T02:44:41.097Z,75163.00
2022-09-20T02:46:32.135Z,75157.06
2022-09-20T02:48:05.517Z,75149.16
2022-09-20T02:49:56.693Z,75062.19
2022-09-20T02:51:40.169Z,74955.44
2022-09-20T02:53:37.429Z,74911.97
2022-09-20T02:55:18.525Z,74852.66
2022-09-20T02:56:56.514Z,74823.00
2022-09-20T02:58:47.629Z,74807.19
2022-09-20T03:00:22.631Z,74706.41
2022-09-20T03:01:55.272Z,74662.91
2022-09-20T03:03:31.215Z,74570.03
2022-09-20T03:05:11.683Z,74579.91
2022-09-20T03:06:44.323Z,74504.81
2022-09-20T03:08:25.691Z,74463.31
2022-09-20T03:10:01.479Z,74445.50
2022-09-20T03:11:34.229Z,74457.38
2022-09-20T03:13:28.068Z,74429.72
2022-09-20T03:15:19.755Z,74506.78
2022-09-20T03:16:58.822Z,74615.47
2022-09-20T03:18:49.735Z,74761.75
2022-09-20T03:20:41.222Z,74696.53
2022-09-20T03:22:31.434Z,74643.16
2022-09-20T03:24:07.172Z,74481.09
2022-09-20T03:25:47.365Z,74437.63
2022-09-20T03:27:28.462Z,74498.88
2022-09-20T03:29:13.197Z,74457.38
2022-09-20T03:30:48.545Z,74546.31
2022-09-20T03:32:30.351Z,74595.72
2022-09-20T03:34:21.575Z,74568.06
2022-09-20T03:35:57.382Z,74623.38
2022-09-20T03:37:53.148Z,74615.47
2022-09-20T03:39:25.823Z,74520.63
2022-09-20T03:41:07.850Z,74376.34
2022-09-20T03:42:51.780Z,74334.84
2022-09-20T03:44:39.678Z,74326.94
2022-09-20T03:46:20.633Z,74382.28
2022-09-20T03:47:59.234Z,74489.00
2022-09-20T03:49:48.384Z,74356.59
2022-09-20T03:51:30.429Z,74376.34
2022-09-20T03:53:24.959Z,74287.41
2022-09-20T03:55:05.317Z,74334.84
2022-09-20T03:56:59.186Z,74287.41
2022-09-20T03:58:50.840Z,74293.34
2022-09-20T04:00:42.626Z,74236.03
2022-09-20T04:02:33.874Z,74176.75
2022-09-20T04:04:12.423Z,74249.88
2022-09-20T04:05:59.843Z,74200.47
2022-09-20T04:07:45.549Z,74216.28
2022-09-20T04:09:30.586Z,74222.19
2022-09-20T04:11:03.391Z,74113.50
2022-09-20T04:12:54.581Z,74113.50
2022-09-20T04:14:45.623Z,74135.25
2022-09-20T04:16:21.370Z,74072.00
2022-09-20T04:18:12.334Z,74164.88
2022-09-20T04:19:49.317Z,74216.28
2022-09-20T04:21:40.377Z,74105.59
2022-09-20T04:23:24.760Z,74334.84
2022-09-20T04:25:00.886Z,74236.03
2022-09-20T04:26:36.931Z,74230.09
2022-09-20T04:28:16.465Z,74172.78
2022-09-20T04:30:17.673Z,74362.50
2022-09-20T04:31:59.464Z,74332.88
2022-09-20T04:33:35.143Z,74409.94
2022-09-20T04:35:35.273Z,74390.19
2022-09-20T04:37:23.252Z,74287.41
2022-09-20T04:39:02.015Z,74319.03
2022-09-20T04:40:47.805Z,74277.53
2022-09-20T04:42:38.792Z,74293.34
2022-09-20T04:44:23.710Z,74354.59
2022-09-20T04:46:14.956Z,74352.63
2022-09-20T04:48:05.613Z,74178.72
2022-09-20T04:49:40.994Z,74151.06
2022-09-20T04:51:13.601Z,74052.25
2022-09-20T04:53:15.387Z,73985.06
2022-09-20T04:55:12.457Z,73864.50
2022-09-20T04:57:08.505Z,73821.03
2022-09-20T04:58:47.636Z,73823.03
2022-09-20T05:00:21.959Z,73757.81
2022-09-20T05:02:03.759Z,73666.91
2022-09-20T05:03:36.542Z,73896.13
2022-09-20T05:05:28.027Z,73943.56
2022-09-20T05:07:19.723Z,74056.19
2022-09-20T05:09:14.502Z,73998.88
2022-09-20T05:11:28.034Z,73878.34
2022-09-20T05:13:09.521Z,73846.72
2022-09-20T05:14:50.932Z,73868.47
2022-09-20T05:16:36.043Z,73904.03
2022-09-20T05:18:15.068Z,73736.06
2022-09-20T05:19:52.869Z,73607.63
2022-09-20T05:21:41.654Z,73530.56
2022-09-20T05:23:17.554Z,73728.16
2022-09-20T05:25:02.297Z,73785.47
2022-09-20T05:26:41.534Z,73621.47
2022-09-20T05:28:22.196Z,73738.06
2022-09-20T05:30:05.030Z,73645.19
2022-09-20T05:31:53.272Z,73708.41
2022-09-20T05:33:28.889Z,73838.81
2022-09-20T05:35:27.587Z,73848.72
2022-09-20T05:37:10.941Z,73708.41
2022-09-20T05:38:53.185Z,73848.72
2022-09-20T05:40:30.863Z,73745.94
2022-09-20T05:42:15.415Z,73742.00
2022-09-20T05:44:08.780Z,73684.69
2022-09-20T05:46:03.662Z,73799.31
2022-09-20T05:48:08.860Z,73864.50
2022-09-20T05:49:56.741Z,73931.69
2022-09-20T05:51:32.567Z,73866.50
2022-09-20T05:53:19.001Z,73904.03
2022-09-20T05:55:03.966Z,73951.47
2022-09-20T05:56:36.497Z,73963.31
2022-09-20T05:58:32.536Z,74004.81
2022-09-20T06:00:05.415Z,73913.91
2022-09-20T06:02:07.467Z,73769.66
2022-09-20T06:03:43.723Z,73601.72
2022-09-20T06:05:18.065Z,73672.84
2022-09-20T06:06:56.589Z,73619.50
2022-09-20T06:08:50.359Z,73619.50
2022-09-20T06:10:32.290Z,73651.09
2022-09-20T06:12:26.365Z,73763.75
2022-09-20T06:14:05.070Z,73759.78
2022-09-20T06:15:56.628Z,73720.25
2022-09-20T06:17:42.979Z,73728.16
2022-09-20T06:19:24.764Z,73759.78
2022-09-20T06:21:06.450Z,73769.66
2022-09-20T06:22:44.101Z,73951.47
2022-09-20T06:24:23.348Z,73854.63
2022-09-20T06:26:08.067Z,73911.94
2022-09-20T06:27:59.428Z,74085.84
2022-09-20T06:29:36.722Z,74062.13
2022-09-20T06:31:11.015Z,73977.16
2022-09-20T06:33:00.378Z,73894.16
2022-09-20T06:34:33.023Z,73890.19
2022-09-20T06:36:34.829Z,73939.59
2022-09-20T06:38:39.136Z,73919.84
2022-09-20T06:40:37.542Z,73828.94
2022-09-20T06:42:13.136Z,73769.66
2022-09-20T06:43:48.830Z,73763.75
2022-09-20T06:45:21.617Z,73769.66
2022-09-20T06:46:54.606Z,73793.38
2022-09-20T06:48:27.571Z,73858.59
2022-09-20T06:50:00.604Z,73965.28
2022-09-20T06:51:37.337Z,74022.59
2022-09-20T06:53:11.241Z,73989.00
2022-09-20T06:54:46.221Z,73979.13
2022-09-20T06:56:20.993Z,73987.03
2022-09-20T06:57:53.735Z,73969.25
2022-09-20T06:59:26.791Z,74010.75
2022-09-20T07:00:59.592Z,74064.09
2022-09-20T07:02:32.287Z,74066.06
2022-09-20T07:04:06.453Z,74117.47
2022-09-20T07:05:39.280Z,74079.91
2022-09-20T07:07:15.914Z,74091.78
2022-09-20T07:08:48.530Z,74121.41
2022-09-20T07:10:21.286Z,74133.28
2022-09-20T07:11:55.530Z,74145.13
2022-09-20T07:13:28.517Z,74151.06
2022-09-20T07:15:01.252Z,74166.88
2022-09-20T07:16:36.572Z,74230.09
2022-09-20T07:18:09.303Z,74243.94
2022-09-20T07:19:42.232Z,74243.94
2022-09-20T07:21:16.179Z,74200.47
2022-09-20T07:22:49.153Z,74220.22
2022-09-20T07:24:21.791Z,74216.28
2022-09-20T07:25:54.907Z,74180.69
2022-09-20T07:27:29.452Z,74174.78
2022-09-20T07:29:02.435Z,74230.09
2022-09-20T07:30:35.344Z,74212.31
2022-09-20T07:32:08.469Z,74190.56
2022-09-20T07:33:41.246Z,74176.75
2022-09-20T07:35:13.989Z,74186.63
2022-09-20T07:36:50.541Z,74160.94
2022-09-20T07:38:23.535Z,74180.69
2022-09-20T07:39:56.300Z,74145.13
2022-09-20T07:41:31.878Z,74137.22
2022-09-20T07:43:04.907Z,74202.44
2022-09-20T07:44:39.459Z,74206.38
2022-09-20T07:46:13.990Z,74224.19
2022-09-20T07:47:46.998Z,74208.38
2022-09-20T07:49:20.063Z,74200.47
2022-09-20T07:50:56.582Z,74147.09
2022-09-20T07:52:29.353Z,74109.56
2022-09-20T07:54:02.072Z,74153.03
2022-09-20T07:55:35.996Z,74137.22
2022-09-20T07:57:08.829Z,74176.75
2022-09-20T07:58:42.149Z,74156.97
2022-09-20T08:00:14.867Z,74153.03
2022-09-20T08:01:47.847Z,74151.06
2022-09-20T08:03:20.890Z,74117.47
2022-09-20T08:04:53.692Z,74172.78
2022-09-20T08:06:27.097Z,74156.97
2022-09-20T08:08:01.300Z,74178.72
2022-09-20T08:09:34.055Z,74160.94
2022-09-20T08:11:06.715Z,74160.94
2022-09-20T08:14:52.901Z,74141.16
2022-09-20T08:16:26.117Z,74180.69
2022-09-20T08:17:58.819Z,74137.22
2022-09-20T08:19:31.535Z,74109.56
2022-09-20T08:21:11.693Z,74133.28
2022-09-20T08:22:56.434Z,74125.38
2022-09-20T08:24:37.688Z,74085.84
2022-09-20T08:26:15.001Z,74103.63
2022-09-20T08:27:56.610Z,74117.47
2022-09-20T08:29:29.251Z,74129.31
2022-09-20T08:31:03.332Z,74121.41
2022-09-20T08:32:38.646Z,74101.66
2022-09-20T08:34:12.872Z,74062.13
2022-09-20T08:35:48.763Z,74040.38
2022-09-20T08:37:21.671Z,74091.78
2022-09-20T08:40:48.741Z,74038.41
2022-09-20T08:42:44.438Z,74030.50
2022-09-20T08:44:25.557Z,74030.50
2022-09-20T08:46:05.334Z,73992.97
2022-09-20T08:47:43.142Z,73951.47
2022-09-20T08:49:19.786Z,73959.38
2022-09-20T08:50:52.757Z,74022.59
2022-09-20T08:52:36.165Z,74016.69
2022-09-20T08:54:16.491Z,73987.03
2022-09-20T08:55:49.189Z,74014.69
2022-09-20T08:57:21.963Z,74002.84
2022-09-20T08:58:54.750Z,73961.34
2022-09-20T09:00:30.966Z,73937.63
2022-09-20T09:02:03.597Z,73939.59
2022-09-20T09:03:36.437Z,73911.94
2022-09-20T09:05:26.633Z,73939.59
2022-09-20T09:06:59.381Z,73955.41
2022-09-20T09:08:39.183Z,73957.41
2022-09-20T09:10:12.143Z,73929.72
2022-09-20T09:11:46.267Z,73913.91
2022-09-20T09:13:23.844Z,73935.66
2022-09-20T09:15:29.855Z,73933.69
2022-09-20T09:17:02.579Z,73935.66
2022-09-20T09:18:40.555Z,73925.78
2022-09-20T09:20:23.532Z,73900.09
2022-09-20T09:22:05.869Z,73892.19
2022-09-20T09:23:42.779Z,73900.09
2022-09-20T09:25:17.214Z,73894.16
2022-09-20T09:26:49.967Z,73862.53
2022-09-20T09:28:28.336Z,73854.63
2022-09-20T09:30:01.251Z,73864.50
2022-09-20T09:31:34.010Z,73882.31
2022-09-20T09:33:31.468Z,73858.59
2022-09-20T09:35:22.185Z,73888.22
2022-09-20T09:36:55.765Z,73886.25
2022-09-20T09:38:30.063Z,73866.50
2022-09-20T09:40:08.376Z,73826.97
2022-09-20T09:41:41.466Z,73825.00
2022-09-20T09:43:23.992Z,73813.13
2022-09-20T09:45:10.896Z,73819.06
2022-09-20T09:46:43.691Z,73819.06
2022-09-20T09:48:19.443Z,73809.19
2022-09-20T09:50:01.869Z,73797.34
2022-09-20T09:51:37.316Z,73779.53
2022-09-20T09:53:17.435Z,73793.38
2022-09-20T09:54:52.143Z,73811.16
2022-09-20T09:56:34.011Z,73844.75
2022-09-20T09:58:21.144Z,73838.81
2022-09-20T10:00:06.874Z,73834.88
2022-09-20T10:01:50.491Z,73817.09
2022-09-20T10:03:39.504Z,73801.28
2022-09-20T10:05:25.180Z,73777.56
2022-09-20T10:06:57.850Z,73779.53
2022-09-20T10:08:49.972Z,73805.22
2022-09-20T10:10:41.762Z,73801.28
2022-09-20T10:12:23.712Z,73807.22
2022-09-20T10:14:19.070Z,73797.34
2022-09-20T10:15:57.719Z,73811.16
2022-09-20T10:17:38.834Z,73797.34
2022-09-20T10:19:22.505Z,73791.41
2022-09-20T10:20:58.350Z,73807.22
2022-09-20T10:23:21.355Z,73807.22
2022-09-20T10:24:51.547Z,73807.22
2022-09-20T10:26:24.561Z,73803.25
2022-09-20T10:28:15.709Z,73789.44
2022-09-20T10:29:58.349Z,73771.66
2022-09-20T10:31:31.295Z,73799.31
2022-09-20T10:33:13.829Z,73801.28
2022-09-20T10:34:49.674Z,73817.09
2022-09-20T10:36:22.337Z,73805.22
2022-09-20T10:38:11.720Z,73807.22
2022-09-20T10:39:46.319Z,73795.34
2022-09-20T10:41:44.709Z,73789.44
2022-09-20T10:43:37.519Z,73773.63
2022-09-20T10:45:53.278Z,73765.72
2022-09-20T10:47:23.844Z,73753.84
2022-09-20T10:49:03.841Z,73743.97
2022-09-20T10:50:45.816Z,73749.91
2022-09-20T10:52:37.037Z,73757.81
2022-09-20T10:54:28.657Z,73745.94
2022-09-20T10:56:01.726Z,73742.00
2022-09-20T10:57:35.451Z,73773.63
2022-09-20T10:59:20.776Z,73787.44
2022-09-20T11:01:01.863Z,73795.34
2022-09-20T11:02:42.041Z,73785.47
2022-09-20T11:04:26.921Z,73787.44
2022-09-20T11:06:19.241Z,73799.31
2022-09-20T11:07:54.796Z,73781.53
2022-09-20T11:09:30.430Z,73765.72
2022-09-20T11:11:18.857Z,73761.75
2022-09-20T11:13:02.627Z,73773.63
2022-09-20T11:14:39.235Z,73777.56
2022-09-20T11:16:23.623Z,73775.59
2022-09-20T11:18:10.330Z,73781.53
2022-09-20T11:20:07.724Z,73765.72
2022-09-20T11:21:44.916Z,73805.22
2022-09-20T11:23:21.503Z,73797.34
2022-09-20T11:25:14.841Z,73801.28
2022-09-20T11:26:57.523Z,73805.22
2022-09-20T11:28:45.039Z,73801.28
2022-09-20T11:30:22.206Z,73828.94
2022-09-20T11:31:58.649Z,73825.00
2022-09-20T11:33:49.784Z,73826.97
2022-09-20T11:35:29.560Z,73826.97
2022-09-20T11:37:03.589Z,73848.72
2022-09-20T11:38:39.273Z,73876.38
2022-09-20T11:40:20.095Z,73902.06
2022-09-20T11:41:56.062Z,73935.66
2022-09-20T11:43:31.448Z,73943.56
2022-09-20T11:45:04.542Z,73953.44
2022-09-20T11:46:40.791Z,73953.44
2022-09-20T11:48:20.345Z,73971.22
2022-09-20T11:49:53.203Z,73983.09
2022-09-20T11:51:46.714Z,73989.00
2022-09-20T11:53:37.771Z,73979.13
2022-09-20T11:55:30.286Z,73975.19
2022-09-20T11:57:03.320Z,73973.19
2022-09-20T11:58:48.474Z,73959.38
2022-09-20T12:00:30.229Z,73953.44
2022-09-20T12:02:05.773Z,73955.41
2022-09-20T12:03:40.359Z,73943.56
2022-09-20T12:05:42.419Z,73943.56
2022-09-20T12:07:19.880Z,73935.66
2022-09-20T12:08:53.057Z,73927.75
2022-09-20T12:10:30.778Z,73919.84
2022-09-20T12:12:22.682Z,73913.91
2022-09-20T12:14:00.130Z,73900.09
2022-09-20T12:15:35.134Z,73908.00
2022-09-20T12:17:27.712Z,73915.91
2022-09-20T12:19:00.426Z,73919.84
2022-09-20T12:20:33.099Z,73911.94
2022-09-20T12:22:05.765Z,73925.78
2022-09-20T12:23:40.985Z,73931.69
2022-09-20T12:25:37.087Z,73939.59
2022-09-20T12:27:29.474Z,73955.41
2022-09-20T12:29:05.453Z,73963.31
2022-09-20T12:30:37.951Z,73979.13
2022-09-20T12:32:29.411Z,73987.03
2022-09-20T12:34:11.326Z,73991.00
2022-09-20T12:35:53.922Z,73989.00
2022-09-20T12:37:26.763Z,73987.03
2022-09-20T12:39:20.688Z,73996.91
2022-09-20T12:41:01.380Z,74006.78
2022-09-20T12:42:34.486Z,74020.63
2022-09-20T12:44:23.740Z,74022.59
2022-09-20T12:46:02.575Z,74024.59
2022-09-20T12:47:38.566Z,74036.44
2022-09-20T12:49:41.326Z,74052.25
2022-09-20T12:51:35.365Z,74070.03
2022-09-20T12:53:15.731Z,74060.16
2022-09-20T12:54:58.127Z,74058.19
2022-09-20T12:56:36.614Z,74058.19
2022-09-20T12:58:14.933Z,74068.06
2022-09-20T12:59:56.572Z,74066.06
2022-09-20T13:01:30.997Z,74060.16
2022-09-20T13:03:21.919Z,74068.06
2022-09-20T13:04:55.737Z,74072.00
2022-09-20T13:06:28.806Z,74089.78
2022-09-20T13:08:13.747Z,74095.72
2022-09-20T13:09:48.104Z,74105.59
2022-09-20T13:11:23.963Z,74117.47
2022-09-20T13:13:00.190Z,74137.22
2022-09-20T13:14:33.508Z,74151.06
2022-09-20T13:16:06.941Z,74153.03
2022-09-20T13:17:41.296Z,74160.94
2022-09-20T13:19:14.027Z,74168.84
2022-09-20T13:20:46.719Z,74174.78
2022-09-20T13:22:33.427Z,74178.72
2022-09-20T13:24:08.391Z,74184.66
2022-09-20T13:25:41.137Z,74192.56
2022-09-20T13:27:37.610Z,74200.47
2022-09-20T13:29:21.332Z,74212.31
2022-09-20T13:31:14.179Z,74232.06
2022-09-20T13:32:47.285Z,74230.09
2022-09-20T13:34:21.517Z,74236.03
2022-09-20T13:35:58.933Z,74253.81
2022-09-20T13:37:32.131Z,74263.69
2022-09-20T13:39:06.883Z,74279.50
2022-09-20T13:40:39.612Z,74291.38
2022-09-20T13:42:20.112Z,74307.19
2022-09-20T13:43:53.397Z,74332.88
2022-09-20T13:45:27.328Z,74342.75
2022-09-20T13:47:07.278Z,74360.53
2022-09-20T13:48:41.010Z,74386.22
2022-09-20T13:50:35.135Z,74400.06
2022-09-20T13:52:27.447Z,74402.03
2022-09-20T13:54:18.710Z,74425.75
2022-09-20T13:55:51.835Z,74435.63
2022-09-20T13:57:29.247Z,74441.56
2022-09-20T13:59:05.427Z,74453.41
2022-09-20T14:00:46.074Z,74461.31
2022-09-20T14:02:27.581Z,74469.22
2022-09-20T14:04:05.497Z,74481.09
2022-09-20T14:05:38.340Z,74496.91
2022-09-20T14:07:11.537Z,74504.81
2022-09-20T14:08:46.252Z,74518.66
2022-09-20T14:10:28.143Z,74528.53
2022-09-20T14:12:01.370Z,74542.34
2022-09-20T14:13:38.023Z,74552.25
2022-09-20T14:15:11.673Z,74568.06
2022-09-20T14:16:46.951Z,74573.97
2022-09-20T14:18:21.582Z,74587.81
2022-09-20T14:19:55.306Z,74603.63
2022-09-20T14:21:29.534Z,74619.44
2022-09-20T14:23:02.329Z,74627.34
2022-09-20T14:24:36.072Z,74643.16
2022-09-20T14:26:22.476Z,74657.00
2022-09-20T14:28:16.920Z,74662.91
2022-09-20T14:29:53.476Z,74666.88
2022-09-20T14:31:29.778Z,74670.81
2022-09-20T14:33:04.020Z,74670.81
2022-09-20T14:34:37.918Z,74676.75
2022-09-20T14:36:15.784Z,74680.72
2022-09-20T14:37:53.449Z,74690.59
2022-09-20T14:39:26.113Z,74684.66
2022-09-20T14:40:59.783Z,74690.59
2022-09-20T14:42:37.841Z,74690.59
2022-09-20T14:44:25.527Z,74684.66
2022-09-20T14:46:01.746Z,74686.63
2022-09-20T14:47:52.987Z,74694.53
2022-09-20T14:49:25.865Z,74694.53
2022-09-20T14:51:22.359Z,74702.44
2022-09-20T14:53:07.193Z,74710.34
2022-09-20T14:54:40.028Z,74728.16
2022-09-20T14:56:15.061Z,74740.00
2022-09-20T14:57:48.068Z,74749.88
2022-09-20T14:59:22.394Z,74759.75
2022-09-20T15:01:02.239Z,74775.56
2022-09-20T15:02:36.073Z,74795.34
2022-09-20T15:04:15.942Z,74801.28
2022-09-20T15:05:49.464Z,74813.13
2022-09-20T15:07:22.251Z,74825.00
2022-09-20T15:08:55.002Z,74836.84
2022-09-20T15:10:27.968Z,74840.81
2022-09-20T15:12:05.549Z,74846.72
2022-09-20T15:13:38.198Z,74856.63
2022-09-20T15:15:15.347Z,74856.63
2022-09-20T15:16:48.385Z,74860.56
2022-09-20T15:18:22.681Z,74862.53
2022-09-20T15:19:55.330Z,74868.47
2022-09-20T15:21:28.127Z,74876.38
2022-09-20T15:23:02.297Z,74884.28
2022-09-20T15:24:35.035Z,74890.22
2022-09-20T15:26:09.194Z,74902.06
2022-09-20T15:27:42.195Z,74902.06
2022-09-20T15:29:18.440Z,74915.91
2022-09-20T15:30:52.124Z,74927.78
2022-09-20T15:32:24.831Z,74939.63
2022-09-20T15:33:57.443Z,74947.53
2022-09-20T15:35:30.336Z,74959.41
2022-09-20T15:37:03.165Z,74965.31
2022-09-20T15:38:36.056Z,74973.22
2022-09-20T15:40:09.205Z,74983.13
2022-09-20T15:41:42.622Z,74989.03
2022-09-20T15:43:17.475Z,74991.03
2022-09-20T15:44:53.314Z,74996.94
2022-09-20T15:46:29.298Z,74998.94
2022-09-20T15:48:03.474Z,75008.81
2022-09-20T15:49:36.430Z,75026.59
2022-09-20T15:51:11.242Z,75024.63
2022-09-20T15:52:43.760Z,75036.47
2022-09-20T15:54:16.809Z,75032.53
2022-09-20T15:55:49.578Z,75044.38
2022-09-20T15:57:22.274Z,75050.31
2022-09-20T15:59:01.963Z,75064.16
2022-09-20T16:00:34.649Z,75066.13
2022-09-20T16:02:07.667Z,75081.94
2022-09-20T16:03:40.398Z,75089.84
2022-09-20T16:05:13.121Z,75101.72
2022-09-20T16:06:47.240Z,75109.63
2022-09-20T16:08:20.428Z,75117.53
2022-09-20T16:09:53.959Z,75125.44
2022-09-20T16:11:28.211Z,75121.47
2022-09-20T16:13:01.009Z,75123.47
2022-09-20T16:14:33.984Z,75121.47
2022-09-20T16:16:07.713Z,75133.34
2022-09-20T16:17:58.773Z,75131.38
2022-09-20T16:19:32.471Z,75129.38
2022-09-20T16:21:12.841Z,75139.28
2022-09-20T16:22:45.472Z,75143.22
2022-09-20T16:24:18.137Z,75153.09
2022-09-20T16:25:53.111Z,75159.03
2022-09-20T16:27:25.870Z,75168.91
2022-09-20T16:28:58.687Z,75174.84
2022-09-20T16:30:31.555Z,75184.72
2022-09-20T16:32:04.477Z,75196.59
2022-09-20T16:33:37.771Z,75200.53
2022-09-20T16:35:10.472Z,75204.50
2022-09-20T16:36:43.651Z,75206.47
2022-09-20T16:38:16.561Z,75216.38
2022-09-20T16:39:49.986Z,75222.28
2022-09-20T16:41:23.680Z,75228.22
2022-09-20T16:42:58.872Z,75230.19
2022-09-20T16:44:32.735Z,75232.19
2022-09-20T16:46:05.632Z,75240.09
2022-09-20T16:47:41.319Z,75242.06
2022-09-20T16:49:14.454Z,75246.00
2022-09-20T16:50:54.482Z,75242.06
2022-09-20T16:52:27.786Z,75236.13
2022-09-20T16:54:13.605Z,75234.16
2022-09-20T16:55:46.293Z,75236.13
2022-09-20T16:57:19.388Z,75246.00
2022-09-20T16:58:52.523Z,75246.00
2022-09-20T17:00:25.965Z,75248.00
2022-09-20T17:01:59.022Z,75255.91
2022-09-20T17:03:31.772Z,75249.97
2022-09-20T17:05:04.559Z,75253.91
2022-09-20T17:06:37.812Z,75251.94
2022-09-20T17:08:11.209Z,75255.91
2022-09-20T17:09:43.965Z,75253.91
2022-09-20T17:11:18.103Z,75255.91
2022-09-20T17:12:53.127Z,75259.84
2022-09-20T17:14:26.050Z,75255.91
2022-09-20T17:16:05.839Z,75257.88
2022-09-20T17:17:38.588Z,75263.81
2022-09-20T17:19:12.687Z,75259.84
2022-09-20T17:20:45.521Z,75271.72
2022-09-20T17:22:18.383Z,75263.81
2022-09-20T17:23:55.350Z,75269.72
2022-09-20T17:25:28.564Z,75267.75
2022-09-20T17:27:01.990Z,75273.69
2022-09-20T17:28:35.992Z,75281.59
2022-09-20T17:30:10.382Z,75287.53
2022-09-20T17:31:44.554Z,75303.34
2022-09-20T17:33:17.318Z,75315.19
2022-09-20T17:34:50.112Z,75321.13
2022-09-20T17:36:23.177Z,75329.03
2022-09-20T17:37:55.921Z,75331.00
2022-09-20T17:39:28.730Z,75336.94
2022-09-20T17:41:08.870Z,75336.94
2022-09-20T17:42:44.138Z,75336.94
2022-09-20T17:44:17.244Z,75338.91
2022-09-20T17:45:49.850Z,75338.91
2022-09-20T17:47:22.887Z,75344.84
2022-09-20T17:49:02.810Z,75342.88
2022-09-20T17:50:35.427Z,75342.88
2022-09-20T17:52:08.721Z,75342.88
2022-09-20T17:53:41.574Z,75344.84
2022-09-20T17:55:14.507Z,75344.84
2022-09-20T17:56:49.043Z,75354.72
2022-09-20T17:58:22.889Z,75338.91
2022-09-20T17:59:56.095Z,75338.91
2022-09-20T18:01:29.712Z,75336.94
2022-09-20T18:03:04.829Z,75340.91
2022-09-20T18:04:37.741Z,75344.84
2022-09-20T18:06:17.991Z,75344.84
2022-09-20T18:07:52.136Z,75344.84
2022-09-20T18:09:25.741Z,75352.75
2022-09-20T18:10:58.819Z,75348.81
2022-09-20T18:12:31.725Z,75350.78
2022-09-20T18:14:05.613Z,75354.72
2022-09-20T18:15:38.325Z,75352.75
2022-09-20T18:17:11.229Z,75354.72
2022-09-20T18:18:44.805Z,75348.81
2022-09-20T18:20:17.643Z,75352.75
2022-09-20T18:21:50.569Z,75344.84
2022-09-20T18:23:23.186Z,75348.81
2022-09-20T18:24:56.458Z,75338.91
2022-09-20T18:26:32.528Z,75344.84
2022-09-20T18:28:05.299Z,75344.84
2022-09-20T18:29:37.906Z,75344.84
2022-09-20T18:31:10.829Z,75350.78
2022-09-20T18:32:44.734Z,75352.75
2022-09-20T18:34:18.676Z,75354.72
2022-09-20T18:35:51.315Z,75352.75
2022-09-20T18:37:24.109Z,75358.69
2022-09-20T18:38:57.876Z,75362.63
2022-09-20T18:40:31.810Z,75358.69
2022-09-20T18:42:04.716Z,75364.63
2022-09-20T18:43:37.578Z,75366.59
2022-09-20T18:45:10.378Z,75368.56
2022-09-20T18:46:43.264Z,75378.47
2022-09-20T18:48:15.970Z,75374.50
2022-09-20T18:49:48.944Z,75376.47
2022-09-20T18:51:24.535Z,75386.38
2022-09-20T18:52:59.640Z,75392.28
2022-09-20T18:54:33.698Z,75392.28
2022-09-20T18:56:08.539Z,75396.25
2022-09-20T18:57:41.218Z,75404.16
2022-09-20T18:59:21.356Z,75406.13
2022-09-20T19:00:59.833Z,75419.97
2022-09-20T19:02:44.310Z,75423.94
2022-09-20T19:04:35.730Z,75439.75
2022-09-20T19:06:10.258Z,75447.66
2022-09-20T19:07:49.156Z,75449.63
2022-09-20T19:09:23.104Z,75449.63
2022-09-20T19:11:01.898Z,75449.63
2022-09-20T19:12:45.884Z,75445.66
2022-09-20T19:14:18.959Z,75443.69
2022-09-20T19:16:03.977Z,75439.75
2022-09-20T19:17:55.338Z,75437.75
2022-09-20T19:19:34.395Z,75447.66
2022-09-20T19:21:16.057Z,75439.75
2022-09-20T19:23:00.174Z,75445.66
2022-09-20T19:24:42.473Z,75441.72
2022-09-20T19:26:22.076Z,75441.72